createdAt,value
2018-06-14T00:00:33.064Z,19.91
2018-06-14T00:01:33.082Z,19.94
2018-06-14T00:02:33.102Z,20.00
2018-06-14T00:03:33.183Z,20.05
2018-06-14T00:04:33.173Z,19.94
2018-06-14T00:05:33.177Z,20.03
2018-06-14T00:06:33.207Z,19.91
2018-06-14T00:07:33.235Z,20.03
2018-06-14T00:08:33.242Z,19.87
2018-06-14T00:09:33.270Z,20.03
2018-06-14T00:10:33.291Z,20.06
2018-06-14T00:11:33.313Z,20.06
2018-06-14T00:12:33.330Z,20.05
2018-06-14T00:13:33.365Z,20.08
2018-06-14T00:14:33.390Z,20.06
2018-06-14T00:15:33.404Z,20.00
2018-06-14T00:16:33.429Z,19.87
2018-06-14T00:17:33.450Z,20.05
2018-06-14T00:18:33.472Z,20.03
2018-06-14T00:19:33.497Z,20.03
2018-06-14T00:20:33.522Z,20.09
2018-06-14T00:21:33.547Z,20.03
2018-06-14T00:22:33.570Z,20.03
2018-06-14T00:23:33.590Z,20.09
2018-06-14T00:24:33.608Z,20.02
2018-06-14T00:25:33.637Z,20.02
2018-06-14T00:26:33.659Z,20.03
2018-06-14T00:27:33.723Z,20.09
2018-06-14T00:28:33.715Z,20.06
2018-06-14T00:29:33.724Z,19.98
2018-06-14T00:30:33.753Z,20.03
2018-06-14T00:31:33.766Z,20.09
2018-06-14T00:32:33.807Z,20.02
2018-06-14T00:33:33.815Z,20.06
2018-06-14T00:34:33.841Z,20.06
2018-06-14T00:35:33.859Z,20.08
2018-06-14T00:36:33.888Z,19.97
2018-06-14T00:37:33.912Z,19.65
2018-06-14T00:38:33.932Z,19.78
2018-06-14T00:39:33.963Z,19.91
2018-06-14T00:40:33.984Z,19.88
2018-06-14T00:41:34.012Z,19.95
2018-06-14T00:42:34.024Z,19.80
2018-06-14T00:43:34.048Z,19.86
2018-06-14T00:44:34.084Z,19.76
2018-06-14T00:45:34.109Z,19.75
2018-06-14T00:46:34.124Z,19.91
2018-06-14T00:47:34.141Z,19.90
2018-06-14T00:48:34.181Z,19.88
2018-06-14T00:49:34.189Z,19.75
2018-06-14T00:50:34.206Z,19.87
2018-06-14T00:51:34.232Z,19.83
2018-06-14T00:52:34.254Z,19.90
2018-06-14T00:53:34.279Z,19.84
2018-06-14T00:54:34.299Z,19.90
2018-06-14T00:55:34.319Z,19.86
2018-06-14T00:56:34.345Z,19.86
2018-06-14T00:57:34.364Z,19.84
2018-06-14T00:58:34.403Z,19.87
2018-06-14T00:59:34.415Z,19.87
2018-06-14T01:00:34.444Z,19.86
2018-06-14T01:01:34.453Z,19.86
2018-06-14T01:02:34.484Z,19.86
2018-06-14T01:03:34.522Z,19.87
2018-06-14T01:04:34.533Z,19.86
2018-06-14T01:05:34.567Z,19.84
2018-06-14T01:06:34.641Z,19.88
2018-06-14T01:07:34.602Z,19.93
2018-06-14T01:08:34.653Z,20.00
2018-06-14T01:09:34.637Z,19.91
2018-06-14T01:10:34.680Z,19.91
2018-06-14T01:11:34.686Z,19.90
2018-06-14T01:12:34.715Z,19.88
2018-06-14T01:13:34.739Z,19.83
2018-06-14T01:14:34.757Z,19.76
2018-06-14T01:15:34.783Z,19.69
2018-06-14T01:16:34.812Z,19.79
2018-06-14T01:17:34.839Z,19.76
2018-06-14T01:18:34.846Z,19.76
2018-06-14T01:19:34.871Z,19.53
2018-06-14T01:20:34.900Z,19.73
2018-06-14T01:21:34.926Z,19.63
2018-06-14T01:22:34.944Z,19.68
2018-06-14T01:23:34.966Z,19.57
2018-06-14T01:24:34.993Z,19.66
2018-06-14T01:25:35.014Z,19.60
2018-06-14T01:26:35.041Z,19.63
2018-06-14T01:27:35.056Z,19.70
2018-06-14T01:28:35.076Z,19.69
2018-06-14T01:29:35.101Z,19.68
2018-06-14T01:30:35.118Z,19.66
2018-06-14T01:31:35.157Z,19.73
2018-06-14T01:32:35.171Z,19.78
2018-06-14T01:33:35.194Z,19.75
2018-06-14T01:34:35.226Z,19.70
2018-06-14T01:35:35.272Z,19.69
2018-06-14T01:36:35.258Z,19.76
2018-06-14T01:37:35.311Z,19.79
2018-06-14T01:38:35.308Z,19.53
2018-06-14T01:39:35.326Z,19.50
2018-06-14T01:40:35.389Z,19.58
2018-06-14T01:41:35.399Z,19.63
2018-06-14T01:42:35.421Z,19.63
2018-06-14T01:43:35.462Z,19.65
2018-06-14T01:44:35.445Z,19.70
2018-06-14T01:45:35.477Z,19.72
2018-06-14T01:46:35.486Z,19.70
2018-06-14T01:47:35.510Z,19.68
2018-06-14T01:48:35.538Z,19.73
2018-06-14T01:49:35.575Z,19.66
2018-06-14T01:50:35.592Z,19.76
2018-06-14T01:51:35.604Z,19.73
2018-06-14T01:52:35.622Z,19.73
2018-06-14T01:53:35.648Z,19.70
2018-06-14T01:54:35.668Z,19.66
2018-06-14T01:55:35.704Z,19.70
2018-06-14T01:56:35.715Z,19.68
2018-06-14T01:57:35.742Z,19.70
2018-06-14T01:58:35.755Z,19.66
2018-06-14T01:59:35.784Z,19.60
2018-06-14T02:00:35.802Z,19.51
2018-06-14T02:01:35.833Z,19.63
2018-06-14T02:02:35.858Z,19.63
2018-06-14T02:03:35.870Z,19.60
2018-06-14T02:04:35.897Z,19.61
2018-06-14T02:05:35.915Z,19.72
2018-06-14T02:06:35.946Z,19.73
2018-06-14T02:07:36.048Z,19.60
2018-06-14T02:08:35.995Z,19.66
2018-06-14T02:09:36.010Z,19.65
2018-06-14T02:10:36.034Z,19.78
2018-06-14T02:11:36.065Z,19.83
2018-06-14T02:12:36.074Z,19.76
2018-06-14T02:13:36.099Z,19.80
2018-06-14T02:14:36.132Z,19.73
2018-06-14T02:15:36.153Z,19.63
2018-06-14T02:16:36.180Z,19.63
2018-06-14T02:17:36.202Z,19.63
2018-06-14T02:18:36.211Z,19.63
2018-06-14T02:19:36.244Z,19.63
2018-06-14T02:20:36.334Z,19.63
2018-06-14T02:21:36.292Z,19.68
2018-06-14T02:22:36.316Z,19.78
2018-06-14T02:23:36.329Z,19.66
2018-06-14T02:24:36.347Z,19.79
2018-06-14T02:25:36.372Z,19.63
2018-06-14T02:26:36.418Z,19.65
2018-06-14T02:27:36.427Z,19.61
2018-06-14T02:28:36.443Z,19.53
2018-06-14T02:29:36.476Z,19.55
2018-06-14T02:30:36.484Z,19.53
2018-06-14T02:31:36.511Z,19.58
2018-06-14T02:32:36.529Z,19.54
2018-06-14T02:33:36.555Z,19.55
2018-06-14T02:34:36.586Z,19.54
2018-06-14T02:35:36.655Z,19.63
2018-06-14T02:36:36.625Z,19.60
2018-06-14T02:37:36.647Z,19.61
2018-06-14T02:38:36.671Z,19.68
2018-06-14T02:39:36.690Z,19.58
2018-06-14T02:40:36.718Z,19.70
2018-06-14T02:41:36.742Z,19.65
2018-06-14T02:42:36.762Z,19.58
2018-06-14T02:43:36.783Z,19.54
2018-06-14T02:44:36.801Z,19.60
2018-06-14T02:45:36.822Z,19.60
2018-06-14T02:46:36.848Z,19.51
2018-06-14T02:47:36.883Z,19.46
2018-06-14T02:48:36.895Z,19.50
2018-06-14T02:49:36.920Z,19.54
2018-06-14T02:50:36.941Z,19.53
2018-06-14T02:51:36.963Z,19.48
2018-06-14T02:52:36.990Z,19.53
2018-06-14T02:53:37.017Z,19.63
2018-06-14T02:54:37.035Z,19.65
2018-06-14T02:55:37.057Z,19.57
2018-06-14T02:56:37.076Z,19.50
2018-06-14T02:57:37.100Z,19.51
2018-06-14T02:58:37.122Z,19.46
2018-06-14T02:59:37.144Z,19.61
2018-06-14T03:00:37.177Z,19.57
2018-06-14T03:01:37.188Z,19.55
2018-06-14T03:02:37.212Z,19.53
2018-06-14T03:03:37.233Z,19.51
2018-06-14T03:04:37.257Z,19.57
2018-06-14T03:05:37.277Z,19.48
2018-06-14T03:06:37.321Z,19.46
2018-06-14T03:07:37.321Z,19.43
2018-06-14T03:08:37.355Z,19.51
2018-06-14T03:09:37.380Z,19.61
2018-06-14T03:10:37.388Z,19.53
2018-06-14T03:11:37.410Z,19.46
2018-06-14T03:12:37.447Z,19.47
2018-06-14T03:13:37.476Z,19.42
2018-06-14T03:14:37.478Z,19.46
2018-06-14T03:15:37.507Z,19.43
2018-06-14T03:16:37.522Z,19.38
2018-06-14T03:17:37.551Z,19.25
2018-06-14T03:18:37.572Z,19.28
2018-06-14T03:19:37.616Z,19.42
2018-06-14T03:20:37.615Z,19.42
2018-06-14T03:21:37.651Z,19.46
2018-06-14T03:22:37.666Z,19.40
2018-06-14T03:23:37.685Z,19.42
2018-06-14T03:24:37.706Z,19.43
2018-06-14T03:25:37.733Z,19.39
2018-06-14T03:26:37.764Z,19.47
2018-06-14T03:27:37.777Z,19.46
2018-06-14T03:28:37.797Z,19.47
2018-06-14T03:29:37.824Z,19.43
2018-06-14T03:30:37.842Z,19.43
2018-06-14T03:31:37.866Z,19.36
2018-06-14T03:32:37.907Z,19.42
2018-06-14T03:33:37.911Z,19.35
2018-06-14T03:34:37.934Z,19.50
2018-06-14T03:35:37.959Z,19.43
2018-06-14T03:36:37.976Z,19.28
2018-06-14T03:37:38.000Z,19.33
2018-06-14T03:38:38.026Z,19.39
2018-06-14T03:39:38.055Z,19.50
2018-06-14T03:40:38.100Z,19.51
2018-06-14T03:41:38.105Z,19.40
2018-06-14T03:42:38.131Z,19.43
2018-06-14T03:43:38.130Z,19.38
2018-06-14T03:44:38.165Z,19.48
2018-06-14T03:45:38.184Z,19.40
2018-06-14T03:46:38.233Z,19.47
2018-06-14T03:47:38.221Z,19.53
2018-06-14T03:48:38.273Z,19.40
2018-06-14T03:49:38.266Z,19.55
2018-06-14T03:50:38.294Z,19.54
2018-06-14T03:51:38.313Z,19.57
2018-06-14T03:52:38.331Z,19.53
2018-06-14T03:53:38.367Z,19.46
2018-06-14T03:54:38.389Z,19.46
2018-06-14T03:55:38.406Z,19.28
2018-06-14T03:56:38.431Z,19.32
2018-06-14T03:57:38.451Z,19.25
2018-06-14T03:58:38.472Z,19.46
2018-06-14T03:59:38.498Z,19.47
2018-06-14T04:00:38.516Z,19.53
2018-06-14T04:01:38.548Z,19.42
2018-06-14T04:02:38.559Z,19.42
2018-06-14T04:03:38.585Z,19.50
2018-06-14T04:04:38.605Z,19.46
2018-06-14T04:05:38.639Z,19.58
2018-06-14T04:06:38.654Z,19.53
2018-06-14T04:07:38.677Z,19.63
2018-06-14T04:08:38.706Z,19.55
2018-06-14T04:09:38.724Z,19.63
2018-06-14T04:10:38.749Z,19.61
2018-06-14T04:11:38.768Z,19.53
2018-06-14T04:12:38.810Z,19.50
2018-06-14T04:13:38.811Z,19.46
2018-06-14T04:14:38.832Z,19.46
2018-06-14T04:15:38.859Z,19.54
2018-06-14T04:16:38.881Z,19.55
2018-06-14T04:17:38.901Z,19.43
2018-06-14T04:18:39.011Z,19.39
2018-06-14T04:19:38.940Z,19.47
2018-06-14T04:20:38.971Z,19.46
2018-06-14T04:21:38.991Z,19.43
2018-06-14T04:22:39.015Z,19.51
2018-06-14T04:23:39.043Z,19.43
2018-06-14T04:24:39.056Z,19.42
2018-06-14T04:25:39.089Z,19.42
2018-06-14T04:26:39.102Z,19.43
2018-06-14T04:27:39.119Z,19.43
2018-06-14T04:28:39.159Z,19.48
2018-06-14T04:29:39.167Z,19.43
2018-06-14T04:30:39.195Z,19.40
2018-06-14T04:31:39.224Z,19.38
2018-06-14T04:32:39.248Z,19.46
2018-06-14T04:33:39.258Z,19.39
2018-06-14T04:34:39.285Z,19.47
2018-06-14T04:35:39.302Z,19.46
2018-06-14T04:36:39.328Z,19.42
2018-06-14T04:37:39.352Z,19.35
2018-06-14T04:38:39.397Z,19.36
2018-06-14T04:39:39.404Z,19.46
2018-06-14T04:40:39.446Z,19.39
2018-06-14T04:41:39.457Z,19.51
2018-06-14T04:42:39.472Z,19.61
2018-06-14T04:43:39.488Z,19.65
2018-06-14T04:44:39.511Z,19.54
2018-06-14T04:45:39.570Z,19.51
2018-06-14T04:46:39.559Z,19.61
2018-06-14T04:47:39.577Z,19.51
2018-06-14T04:48:39.606Z,19.61
2018-06-14T04:49:39.620Z,19.68
2018-06-14T04:50:39.642Z,19.63
2018-06-14T04:51:39.687Z,19.60
2018-06-14T04:52:39.682Z,19.54
2018-06-14T04:53:39.722Z,19.53
2018-06-14T04:54:39.731Z,19.60
2018-06-14T04:55:39.759Z,19.51
2018-06-14T04:56:39.785Z,19.46
2018-06-14T04:57:39.799Z,19.48
2018-06-14T04:58:39.861Z,19.50
2018-06-14T04:59:39.848Z,19.47
2018-06-14T05:00:39.905Z,19.43
2018-06-14T05:01:39.891Z,19.47
2018-06-14T05:02:39.915Z,19.48
2018-06-14T05:03:39.931Z,19.47
2018-06-14T05:04:39.977Z,19.42
2018-06-14T05:05:39.990Z,19.39
2018-06-14T05:06:40.015Z,19.33
2018-06-14T05:07:40.024Z,19.48
2018-06-14T05:08:40.050Z,19.53
2018-06-14T05:09:40.081Z,19.58
2018-06-14T05:10:40.104Z,19.54
2018-06-14T05:11:40.124Z,19.65
2018-06-14T05:12:40.143Z,19.63
2018-06-14T05:13:40.213Z,19.61
2018-06-14T05:14:40.186Z,19.60
2018-06-14T05:15:40.203Z,19.65
2018-06-14T05:16:40.233Z,19.63
2018-06-14T05:17:40.263Z,19.63
2018-06-14T05:18:40.275Z,19.78
2018-06-14T05:19:40.295Z,19.66
2018-06-14T05:20:40.323Z,19.70
2018-06-14T05:21:40.345Z,19.72
2018-06-14T05:22:40.372Z,19.63
2018-06-14T05:23:40.382Z,19.50
2018-06-14T05:24:40.415Z,19.25
2018-06-14T05:25:40.433Z,19.47
2018-06-14T05:26:40.459Z,19.40
2018-06-14T05:27:40.484Z,19.47
2018-06-14T05:28:40.518Z,19.57
2018-06-14T05:29:40.549Z,19.50
2018-06-14T05:30:40.552Z,19.60
2018-06-14T05:31:40.577Z,19.53
2018-06-14T05:32:40.595Z,19.53
2018-06-14T05:33:40.612Z,19.42
2018-06-14T05:34:40.640Z,19.60
2018-06-14T05:35:40.669Z,19.63
2018-06-14T05:36:40.685Z,19.66
2018-06-14T05:37:40.704Z,19.60
2018-06-14T05:38:40.725Z,19.61
2018-06-14T05:39:40.746Z,19.65
2018-06-14T05:40:40.777Z,19.76
2018-06-14T05:41:40.794Z,19.66
2018-06-14T05:42:40.813Z,19.76
2018-06-14T05:43:40.836Z,19.68
2018-06-14T05:44:40.885Z,19.72
2018-06-14T05:45:40.891Z,19.76
2018-06-14T05:46:40.907Z,19.69
2018-06-14T05:47:40.974Z,19.72
2018-06-14T05:48:40.951Z,19.55
2018-06-14T05:49:40.972Z,19.65
2018-06-14T05:50:40.998Z,19.51
2018-06-14T05:51:41.030Z,19.61
2018-06-14T05:52:41.041Z,19.65
2018-06-14T05:53:41.069Z,19.66
2018-06-14T05:54:41.097Z,19.72
2018-06-14T05:55:41.116Z,19.68
2018-06-14T05:56:41.127Z,19.76
2018-06-14T05:57:41.160Z,19.79
2018-06-14T05:58:41.181Z,19.73
2018-06-14T05:59:41.202Z,19.68
2018-06-14T06:00:41.230Z,19.66
2018-06-14T06:01:41.251Z,19.68
2018-06-14T06:02:41.279Z,19.70
2018-06-14T06:03:41.294Z,19.70
2018-06-14T06:04:41.313Z,19.73
2018-06-14T06:05:41.339Z,19.72
2018-06-14T06:06:41.359Z,19.75
2018-06-14T06:07:41.384Z,19.76
2018-06-14T06:08:41.403Z,19.78
2018-06-14T06:09:41.426Z,19.72
2018-06-14T06:10:41.458Z,19.72
2018-06-14T06:11:41.484Z,19.75
2018-06-14T06:12:41.504Z,19.73
2018-06-14T06:13:41.517Z,19.69
2018-06-14T06:14:41.540Z,19.76
2018-06-14T06:15:41.561Z,19.76
2018-06-14T06:16:41.590Z,19.73
2018-06-14T06:17:41.612Z,19.72
2018-06-14T06:18:41.638Z,19.69
2018-06-14T06:19:41.656Z,19.73
2018-06-14T06:20:41.696Z,19.73
2018-06-14T06:21:41.700Z,19.75
2018-06-14T06:22:41.733Z,19.88
2018-06-14T06:23:41.752Z,19.78
2018-06-14T06:24:41.779Z,19.80
2018-06-14T06:25:41.789Z,19.84
2018-06-14T06:26:41.818Z,19.75
2018-06-14T06:27:41.838Z,19.83
2018-06-14T06:28:41.908Z,19.75
2018-06-14T06:29:41.897Z,19.88
2018-06-14T06:30:41.908Z,19.80
2018-06-14T06:31:41.926Z,19.83
2018-06-14T06:32:41.953Z,19.88
2018-06-14T06:33:41.975Z,19.75
2018-06-14T06:34:42.000Z,19.87
2018-06-14T06:35:42.028Z,19.83
2018-06-14T06:36:42.044Z,19.88
2018-06-14T06:37:42.090Z,19.86
2018-06-14T06:38:42.091Z,19.83
2018-06-14T06:39:42.123Z,19.94
2018-06-14T06:40:42.138Z,19.79
2018-06-14T06:41:42.163Z,19.87
2018-06-14T06:42:42.182Z,19.84
2018-06-14T06:43:42.216Z,19.86
2018-06-14T06:44:42.232Z,19.93
2018-06-14T06:45:42.253Z,19.98
2018-06-14T06:46:42.280Z,19.83
2018-06-14T06:47:42.293Z,19.91
2018-06-14T06:48:42.317Z,19.95
2018-06-14T06:49:42.336Z,19.95
2018-06-14T06:50:42.365Z,19.95
2018-06-14T06:51:42.392Z,19.95
2018-06-14T06:52:42.407Z,19.91
2018-06-14T06:53:42.432Z,19.87
2018-06-14T06:54:42.461Z,19.88
2018-06-14T06:55:42.477Z,19.94
2018-06-14T06:56:42.499Z,19.97
2018-06-14T06:57:42.528Z,20.00
2018-06-14T06:58:42.600Z,20.06
2018-06-14T06:59:42.575Z,20.05
2018-06-14T07:00:42.602Z,20.08
2018-06-14T07:01:42.621Z,20.06
2018-06-14T07:02:42.640Z,20.00
2018-06-14T07:03:42.662Z,19.98
2018-06-14T07:04:42.708Z,19.78
2018-06-14T07:05:42.710Z,19.93
2018-06-14T07:06:42.735Z,20.03
2018-06-14T07:07:42.767Z,20.03
2018-06-14T07:08:42.778Z,19.95
2018-06-14T07:09:42.808Z,20.03
2018-06-14T07:10:42.827Z,19.98
2018-06-14T07:11:42.850Z,19.86
2018-06-14T07:12:42.876Z,19.86
2018-06-14T07:13:42.895Z,19.93
2018-06-14T07:14:42.916Z,19.84
2018-06-14T07:15:42.934Z,19.98
2018-06-14T07:16:42.957Z,19.98
2018-06-14T07:17:42.991Z,19.93
2018-06-14T07:18:43.008Z,19.98
2018-06-14T07:19:43.033Z,19.94
2018-06-14T07:20:43.060Z,19.86
2018-06-14T07:21:43.094Z,19.68
2018-06-14T07:22:43.098Z,19.76
2018-06-14T07:23:43.120Z,19.80
2018-06-14T07:24:43.144Z,19.83
2018-06-14T07:25:43.168Z,19.87
2018-06-14T07:26:43.193Z,19.95
2018-06-14T07:27:43.231Z,20.03
2018-06-14T07:28:43.247Z,19.97
2018-06-14T07:29:43.265Z,19.90
2018-06-14T07:30:43.288Z,20.02
2018-06-14T07:31:43.314Z,20.06
2018-06-14T07:32:43.361Z,20.13
2018-06-14T07:33:43.359Z,20.08
2018-06-14T07:34:43.375Z,20.09
2018-06-14T07:35:43.405Z,20.13
2018-06-14T07:36:43.429Z,20.03
2018-06-14T07:37:43.445Z,20.06
2018-06-14T07:38:43.472Z,20.06
2018-06-14T07:39:43.504Z,20.03
2018-06-14T07:40:43.521Z,20.13
2018-06-14T07:41:43.541Z,20.03
2018-06-14T07:42:43.563Z,20.06
2018-06-14T07:43:43.594Z,20.15
2018-06-14T07:44:43.609Z,20.18
2018-06-14T07:45:43.633Z,20.13
2018-06-14T07:46:43.657Z,20.15
2018-06-14T07:47:43.680Z,20.02
2018-06-14T07:48:43.738Z,20.08
2018-06-14T07:49:43.764Z,20.13
2018-06-14T07:50:43.813Z,20.21
2018-06-14T07:51:43.775Z,20.18
2018-06-14T07:52:43.793Z,20.13
2018-06-14T07:53:43.813Z,20.21
2018-06-14T07:54:43.851Z,20.20
2018-06-14T07:55:43.880Z,20.16
2018-06-14T07:56:43.894Z,20.18
2018-06-14T07:57:43.918Z,20.03
2018-06-14T07:58:43.936Z,20.13
2018-06-14T07:59:43.960Z,20.20
2018-06-14T08:00:43.982Z,20.08
2018-06-14T08:01:44.003Z,19.91
2018-06-14T08:02:44.031Z,20.02
2018-06-14T08:03:44.051Z,20.02
2018-06-14T08:04:44.071Z,20.06
2018-06-14T08:05:44.096Z,19.97
2018-06-14T08:06:44.119Z,20.13
2018-06-14T08:07:44.143Z,20.15
2018-06-14T08:08:44.165Z,20.13
2018-06-14T08:09:44.193Z,20.09
2018-06-14T08:10:44.214Z,20.05
2018-06-14T08:11:44.240Z,19.73
2018-06-14T08:12:44.296Z,19.95
2018-06-14T08:13:44.282Z,20.02
2018-06-14T08:14:44.310Z,20.13
2018-06-14T08:15:44.330Z,20.09
2018-06-14T08:16:44.352Z,20.15
2018-06-14T08:17:44.371Z,20.24
2018-06-14T08:18:44.395Z,20.25
2018-06-14T08:19:44.422Z,20.27
2018-06-14T08:20:44.454Z,20.27
2018-06-14T08:21:44.468Z,20.02
2018-06-14T08:22:44.504Z,19.97
2018-06-14T08:23:44.511Z,20.15
2018-06-14T08:24:44.541Z,20.25
2018-06-14T08:25:44.558Z,20.31
2018-06-14T08:26:44.591Z,20.43
2018-06-14T08:27:44.602Z,20.50
2018-06-14T08:28:44.629Z,20.53
2018-06-14T08:29:44.654Z,20.54
2018-06-14T08:30:44.685Z,20.51
2018-06-14T08:31:44.701Z,20.51
2018-06-14T08:32:44.729Z,20.54
2018-06-14T08:33:44.750Z,20.41
2018-06-14T08:34:44.771Z,20.49
2018-06-14T08:35:44.797Z,20.43
2018-06-14T08:36:44.824Z,20.43
2018-06-14T08:37:44.842Z,20.50
2018-06-14T08:38:44.876Z,20.34
2018-06-14T08:39:44.893Z,20.42
2018-06-14T08:40:44.926Z,20.41
2018-06-14T08:41:44.941Z,20.34
2018-06-14T08:42:44.957Z,20.38
2018-06-14T08:43:44.990Z,20.30
2018-06-14T08:44:45.033Z,20.15
2018-06-14T08:45:45.036Z,20.25
2018-06-14T08:46:45.050Z,20.09
2018-06-14T08:47:45.070Z,20.25
2018-06-14T08:48:45.103Z,20.24
2018-06-14T08:49:45.130Z,20.30
2018-06-14T08:50:45.149Z,20.46
2018-06-14T08:51:45.183Z,20.43
2018-06-14T08:52:45.192Z,20.50
2018-06-14T08:53:45.213Z,20.47
2018-06-14T08:54:45.241Z,20.35
2018-06-14T08:55:45.273Z,20.49
2018-06-14T08:56:45.286Z,20.58
2018-06-14T08:57:45.317Z,20.61
2018-06-14T08:58:45.338Z,20.53
2018-06-14T08:59:45.357Z,20.69
2018-06-14T09:00:45.379Z,20.66
2018-06-14T09:01:45.407Z,20.65
2018-06-14T09:02:45.431Z,20.62
2018-06-14T09:03:45.451Z,20.71
2018-06-14T09:04:45.480Z,20.54
2018-06-14T09:05:45.495Z,20.58
2018-06-14T09:06:45.523Z,20.64
2018-06-14T09:07:45.551Z,20.69
2018-06-14T09:08:45.571Z,20.74
2018-06-14T09:09:45.593Z,20.69
2018-06-14T09:10:45.623Z,20.65
2018-06-14T09:11:45.644Z,20.71
2018-06-14T09:12:45.667Z,20.65
2018-06-14T09:13:45.690Z,20.59
2018-06-14T09:14:45.717Z,20.62
2018-06-14T09:15:45.735Z,20.74
2018-06-14T09:16:45.768Z,20.62
2018-06-14T09:17:45.785Z,20.58
2018-06-14T09:18:45.814Z,20.54
2018-06-14T09:19:45.828Z,20.56
2018-06-14T09:20:45.893Z,20.62
2018-06-14T09:21:45.881Z,20.47
2018-06-14T09:22:45.903Z,20.49
2018-06-14T09:23:45.924Z,20.56
2018-06-14T09:24:45.950Z,20.66
2018-06-14T09:25:45.969Z,20.65
2018-06-14T09:26:46.000Z,20.74
2018-06-14T09:27:46.034Z,20.58
2018-06-14T09:28:46.046Z,20.50
2018-06-14T09:29:46.070Z,20.69
2018-06-14T09:30:46.088Z,20.62
2018-06-14T09:31:46.115Z,20.61
2018-06-14T09:32:46.145Z,20.54
2018-06-14T09:33:46.162Z,20.51
2018-06-14T09:34:46.184Z,20.54
2018-06-14T09:35:46.249Z,20.54
2018-06-14T09:36:46.233Z,20.51
2018-06-14T09:37:46.256Z,20.58
2018-06-14T09:38:46.291Z,20.62
2018-06-14T09:39:46.315Z,20.58
2018-06-14T09:40:46.328Z,20.66
2018-06-14T09:41:46.349Z,20.66
2018-06-14T09:42:46.431Z,20.74
2018-06-14T09:43:46.400Z,20.71
2018-06-14T09:44:46.429Z,20.64
2018-06-14T09:45:46.469Z,20.62
2018-06-14T09:46:46.467Z,20.66
2018-06-14T09:47:46.494Z,20.66
2018-06-14T09:48:46.521Z,20.61
2018-06-14T09:49:46.540Z,20.61
2018-06-14T09:50:46.564Z,20.65
2018-06-14T09:51:46.601Z,20.69
2018-06-14T09:52:46.613Z,20.74
2018-06-14T09:53:46.639Z,20.71
2018-06-14T09:54:46.655Z,20.72
2018-06-14T09:55:46.684Z,20.72
2018-06-14T09:56:46.703Z,20.64
2018-06-14T09:57:46.728Z,20.69
2018-06-14T09:58:46.758Z,20.62
2018-06-14T09:59:46.792Z,20.68
2018-06-14T10:00:46.802Z,20.74
2018-06-14T10:01:46.825Z,20.71
2018-06-14T10:02:46.899Z,20.74
2018-06-14T10:03:46.879Z,20.72
2018-06-14T10:04:46.901Z,20.71
2018-06-14T10:05:46.927Z,20.71
2018-06-14T10:06:46.948Z,20.77
2018-06-14T10:07:46.973Z,20.71
2018-06-14T10:08:46.990Z,20.77
2018-06-14T10:09:47.017Z,20.81
2018-06-14T10:10:47.045Z,20.84
2018-06-14T10:11:47.067Z,20.61
2018-06-14T10:12:47.097Z,20.77
2018-06-14T10:13:47.118Z,20.86
2018-06-14T10:14:47.149Z,20.87
2018-06-14T10:15:47.164Z,20.98
2018-06-14T10:16:47.189Z,21.01
2018-06-14T10:17:47.221Z,21.14
2018-06-14T10:18:47.262Z,21.16
2018-06-14T10:19:47.261Z,21.04
2018-06-14T10:20:47.280Z,21.08
2018-06-14T10:21:47.401Z,21.04
2018-06-14T10:22:47.336Z,21.11
2018-06-14T10:23:47.359Z,21.09
2018-06-14T10:24:47.373Z,21.05
2018-06-14T10:25:47.404Z,20.91
2018-06-14T10:26:47.423Z,20.89
2018-06-14T10:27:47.443Z,20.90
2018-06-14T10:28:47.475Z,20.84
2018-06-14T10:29:47.494Z,20.95
2018-06-14T10:30:47.517Z,20.98
2018-06-14T10:31:47.548Z,21.01
2018-06-14T10:32:47.574Z,20.86
2018-06-14T10:33:47.655Z,20.95
2018-06-14T10:34:47.617Z,20.98
2018-06-14T10:35:47.641Z,20.98
2018-06-14T10:36:47.663Z,20.93
2018-06-14T10:37:47.690Z,20.95
2018-06-14T10:38:47.723Z,20.96
2018-06-14T10:39:47.750Z,20.98
2018-06-14T10:40:47.762Z,20.96
2018-06-14T10:41:47.789Z,20.99
2018-06-14T10:42:47.814Z,20.93
2018-06-14T10:43:47.836Z,20.96
2018-06-14T10:44:47.858Z,20.96
2018-06-14T10:45:47.896Z,20.95
2018-06-14T10:46:47.908Z,20.99
2018-06-14T10:47:47.966Z,21.06
2018-06-14T10:48:47.963Z,21.08
2018-06-14T10:49:47.987Z,21.11
2018-06-14T10:50:47.999Z,21.13
2018-06-14T10:51:48.075Z,21.04
2018-06-14T10:52:48.062Z,21.16
2018-06-14T10:53:48.081Z,21.06
2018-06-14T10:54:48.111Z,21.20
2018-06-14T10:55:48.152Z,21.27
2018-06-14T10:56:48.152Z,21.13
2018-06-14T10:57:48.180Z,21.20
2018-06-14T10:58:48.196Z,21.21
2018-06-14T10:59:48.222Z,21.23
2018-06-14T11:00:48.244Z,21.08
2018-06-14T11:01:48.270Z,21.13
2018-06-14T11:02:48.293Z,21.05
2018-06-14T11:03:48.316Z,21.16
2018-06-14T11:04:48.346Z,21.20
2018-06-14T11:05:48.363Z,21.16
2018-06-14T11:06:48.394Z,21.21
2018-06-14T11:07:48.415Z,21.21
2018-06-14T11:08:48.447Z,21.24
2018-06-14T11:09:48.462Z,21.21
2018-06-14T11:10:48.490Z,21.27
2018-06-14T11:11:48.508Z,21.26
2018-06-14T11:12:48.538Z,21.26
2018-06-14T11:13:48.559Z,21.11
2018-06-14T11:14:48.595Z,21.09
2018-06-14T11:15:48.614Z,21.09
2018-06-14T11:16:48.634Z,21.06
2018-06-14T11:17:48.661Z,21.09
2018-06-14T11:18:48.689Z,21.02
2018-06-14T11:19:48.710Z,21.14
2018-06-14T11:20:48.728Z,21.02
2018-06-14T11:21:48.757Z,21.08
2018-06-14T11:22:48.777Z,21.05
2018-06-14T11:23:48.807Z,21.14
2018-06-14T11:24:48.830Z,21.23
2018-06-14T11:25:48.848Z,21.17
2018-06-14T11:26:48.892Z,21.13
2018-06-14T11:27:48.905Z,21.20
2018-06-14T11:28:48.944Z,21.20
2018-06-14T11:29:48.953Z,21.26
2018-06-14T11:30:48.974Z,21.29
2018-06-14T11:31:49.008Z,21.20
2018-06-14T11:32:49.025Z,21.29
2018-06-14T11:33:49.068Z,21.34
2018-06-14T11:34:49.103Z,21.34
2018-06-14T11:35:49.126Z,21.35
2018-06-14T11:36:49.124Z,21.41
2018-06-14T11:37:49.161Z,21.38
2018-06-14T11:38:49.172Z,21.42
2018-06-14T11:39:49.205Z,21.39
2018-06-14T11:40:49.222Z,21.42
2018-06-14T11:41:49.261Z,21.42
2018-06-14T11:42:49.273Z,21.51
2018-06-14T11:43:49.287Z,21.50
2018-06-14T11:44:49.319Z,21.54
2018-06-14T11:45:49.336Z,21.51
2018-06-14T11:46:49.376Z,21.51
2018-06-14T11:47:49.395Z,21.56
2018-06-14T11:48:49.421Z,21.60
2018-06-14T11:49:49.445Z,21.48
2018-06-14T11:50:49.473Z,21.50
2018-06-14T11:51:49.481Z,21.45
2018-06-14T11:52:49.512Z,21.60
2018-06-14T11:53:49.543Z,21.56
2018-06-14T11:54:49.565Z,21.61
2018-06-14T11:55:49.578Z,21.74
2018-06-14T11:56:49.614Z,21.72
2018-06-14T11:57:49.639Z,21.64
2018-06-14T11:58:49.658Z,21.67
2018-06-14T11:59:49.686Z,21.66
2018-06-14T12:00:49.712Z,21.69
2018-06-14T12:01:49.865Z,21.75
2018-06-14T12:02:49.755Z,21.71
2018-06-14T12:03:49.783Z,21.72
2018-06-14T12:04:49.819Z,21.69
2018-06-14T12:05:49.835Z,21.75
2018-06-14T12:06:49.856Z,21.69
2018-06-14T12:07:49.878Z,21.75
2018-06-14T12:08:49.901Z,21.76
2018-06-14T12:09:49.952Z,21.76
2018-06-14T12:10:49.977Z,21.75
2018-06-14T12:11:49.983Z,21.79
2018-06-14T12:12:50.005Z,21.78
2018-06-14T12:13:50.035Z,21.85
2018-06-14T12:14:50.081Z,21.85
2018-06-14T12:15:50.076Z,21.91
2018-06-14T12:16:50.102Z,21.90
2018-06-14T12:17:50.129Z,21.92
2018-06-14T12:18:50.161Z,21.91
2018-06-14T12:19:50.181Z,21.94
2018-06-14T12:20:50.202Z,21.85
2018-06-14T12:21:50.231Z,21.90
2018-06-14T12:22:50.257Z,21.81
2018-06-14T12:23:50.276Z,21.79
2018-06-14T12:24:50.317Z,21.74
2018-06-14T12:25:50.339Z,21.83
2018-06-14T12:26:50.352Z,21.85
2018-06-14T12:27:50.376Z,21.94
2018-06-14T12:28:50.400Z,21.94
2018-06-14T12:29:50.430Z,21.76
2018-06-14T12:30:50.458Z,21.91
2018-06-14T12:31:50.482Z,21.91
2018-06-14T12:32:50.507Z,21.91
2018-06-14T12:33:50.533Z,21.94
2018-06-14T12:34:50.550Z,21.83
2018-06-14T12:35:50.576Z,21.71
2018-06-14T12:36:50.605Z,21.72
2018-06-14T12:37:50.631Z,21.75
2018-06-14T12:38:50.653Z,21.71
2018-06-14T12:39:50.700Z,21.71
2018-06-14T12:40:50.707Z,21.71
2018-06-14T12:41:50.742Z,21.76
2018-06-14T12:42:50.758Z,21.72
2018-06-14T12:43:50.786Z,21.75
2018-06-14T12:44:50.806Z,21.72
2018-06-14T12:45:50.824Z,21.78
2018-06-14T12:46:50.849Z,21.78
2018-06-14T12:47:50.882Z,21.79
2018-06-14T12:48:50.904Z,21.72
2018-06-14T12:49:50.932Z,21.79
2018-06-14T12:50:50.959Z,21.79
2018-06-14T12:51:50.991Z,21.88
2018-06-14T12:52:51.004Z,21.88